sensor_id;sensor_type;location;lat;lon;timestamp;temperature;humidity
21734;DHT22;11029;47.820;10.534;2024-02-23T00:00:34;4.40;84.10
21734;DHT22;11029;47.820;10.534;2024-02-23T00:03:20;4.50;84.40
21734;DHT22;11029;47.820;10.534;2024-02-23T00:06:06;4.50;82.50
21734;DHT22;11029;47.820;10.534;2024-02-23T00:08:54;4.40;83.60
21734;DHT22;11029;47.820;10.534;2024-02-23T00:11:41;4.30;83.40
21734;DHT22;11029;47.820;10.534;2024-02-23T00:14:30;4.30;80.90
21734;DHT22;11029;47.820;10.534;2024-02-23T00:17:21;4.20;82.00
21734;DHT22;11029;47.820;10.534;2024-02-23T00:20:09;4.00;83.00
21734;DHT22;11029;47.820;10.534;2024-02-23T00:23:01;3.90;83.80
21734;DHT22;11029;47.820;10.534;2024-02-23T00:25:47;3.80;85.30
21734;DHT22;11029;47.820;10.534;2024-02-23T00:28:33;3.70;85.10
21734;DHT22;11029;47.820;10.534;2024-02-23T00:31:18;3.70;85.70
21734;DHT22;11029;47.820;10.534;2024-02-23T00:34:04;3.70;85.50
21734;DHT22;11029;47.820;10.534;2024-02-23T00:36:49;3.60;85.70
21734;DHT22;11029;47.820;10.534;2024-02-23T00:39:35;3.60;87.00
21734;DHT22;11029;47.820;10.534;2024-02-23T00:42:21;3.60;87.20
21734;DHT22;11029;47.820;10.534;2024-02-23T00:45:07;3.50;87.00
21734;DHT22;11029;47.820;10.534;2024-02-23T00:47:53;3.50;87.00
21734;DHT22;11029;47.820;10.534;2024-02-23T00:50:39;3.50;87.20
21734;DHT22;11029;47.820;10.534;2024-02-23T00:53:25;3.40;87.00
21734;DHT22;11029;47.820;10.534;2024-02-23T00:56:11;3.50;87.30
21734;DHT22;11029;47.820;10.534;2024-02-23T00:58:56;3.50;87.60
21734;DHT22;11029;47.820;10.534;2024-02-23T01:01:41;3.60;87.10
21734;DHT22;11029;47.820;10.534;2024-02-23T01:04:27;3.60;86.20
21734;DHT22;11029;47.820;10.534;2024-02-23T01:07:12;3.80;84.90
21734;DHT22;11029;47.820;10.534;2024-02-23T01:09:58;3.90;84.90
21734;DHT22;11029;47.820;10.534;2024-02-23T01:12:43;3.90;84.00
21734;DHT22;11029;47.820;10.534;2024-02-23T01:15:29;4.00;82.10
21734;DHT22;11029;47.820;10.534;2024-02-23T01:18:15;4.00;81.20
21734;DHT22;11029;47.820;10.534;2024-02-23T01:21:00;4.00;81.10
21734;DHT22;11029;47.820;10.534;2024-02-23T01:23:46;4.00;80.50
21734;DHT22;11029;47.820;10.534;2024-02-23T01:26:31;3.90;80.30
21734;DHT22;11029;47.820;10.534;2024-02-23T01:29:17;3.90;80.80
21734;DHT22;11029;47.820;10.534;2024-02-23T01:32:03;3.90;81.80
21734;DHT22;11029;47.820;10.534;2024-02-23T01:34:49;3.90;81.10
21734;DHT22;11029;47.820;10.534;2024-02-23T01:37:34;3.90;81.30
21734;DHT22;11029;47.820;10.534;2024-02-23T01:40:20;3.90;81.60
21734;DHT22;11029;47.820;10.534;2024-02-23T01:43:05;3.90;81.00
21734;DHT22;11029;47.820;10.534;2024-02-23T01:45:51;3.90;80.90
21734;DHT22;11029;47.820;10.534;2024-02-23T01:48:37;3.90;81.60
21734;DHT22;11029;47.820;10.534;2024-02-23T01:51:24;3.90;81.30
21734;DHT22;11029;47.820;10.534;2024-02-23T01:54:10;3.80;80.70
21734;DHT22;11029;47.820;10.534;2024-02-23T01:56:56;3.90;79.60
21734;DHT22;11029;47.820;10.534;2024-02-23T01:59:50;3.90;80.70
21734;DHT22;11029;47.820;10.534;2024-02-23T02:02:36;3.90;80.10
21734;DHT22;11029;47.820;10.534;2024-02-23T02:05:22;4.00;79.50
21734;DHT22;11029;47.820;10.534;2024-02-23T02:08:08;4.00;79.00
21734;DHT22;11029;47.820;10.534;2024-02-23T02:10:54;4.00;79.30
21734;DHT22;11029;47.820;10.534;2024-02-23T02:13:40;4.00;78.50
21734;DHT22;11029;47.820;10.534;2024-02-23T02:16:25;4.00;77.10
21734;DHT22;11029;47.820;10.534;2024-02-23T02:19:11;4.10;76.10
21734;DHT22;11029;47.820;10.534;2024-02-23T02:21:57;4.00;76.30
21734;DHT22;11029;47.820;10.534;2024-02-23T02:24:43;4.00;76.10
21734;DHT22;11029;47.820;10.534;2024-02-23T02:27:31;4.00;75.70
21734;DHT22;11029;47.820;10.534;2024-02-23T02:30:17;4.00;75.60
21734;DHT22;11029;47.820;10.534;2024-02-23T02:33:03;4.00;75.70
21734;DHT22;11029;47.820;10.534;2024-02-23T02:35:48;4.10;74.90
21734;DHT22;11029;47.820;10.534;2024-02-23T02:38:35;4.10;74.90
21734;DHT22;11029;47.820;10.534;2024-02-23T02:41:23;4.00;75.90
21734;DHT22;11029;47.820;10.534;2024-02-23T02:44:14;4.00;75.50
21734;DHT22;11029;47.820;10.534;2024-02-23T02:47:00;4.00;74.60
21734;DHT22;11029;47.820;10.534;2024-02-23T02:49:46;4.00;75.90
21734;DHT22;11029;47.820;10.534;2024-02-23T02:52:33;3.90;76.60
21734;DHT22;11029;47.820;10.534;2024-02-23T02:55:19;3.90;76.90
21734;DHT22;11029;47.820;10.534;2024-02-23T02:58:05;3.80;76.90
21734;DHT22;11029;47.820;10.534;2024-02-23T03:00:50;3.80;77.80
21734;DHT22;11029;47.820;10.534;2024-02-23T03:03:36;3.70;78.10
21734;DHT22;11029;47.820;10.534;2024-02-23T03:06:21;3.60;78.70
21734;DHT22;11029;47.820;10.534;2024-02-23T03:09:07;3.60;79.70
21734;DHT22;11029;47.820;10.534;2024-02-23T03:11:53;3.50;80.70
21734;DHT22;11029;47.820;10.534;2024-02-23T03:14:38;3.50;80.70
21734;DHT22;11029;47.820;10.534;2024-02-23T03:17:25;3.40;81.30
21734;DHT22;11029;47.820;10.534;2024-02-23T03:20:11;3.30;81.80
21734;DHT22;11029;47.820;10.534;2024-02-23T03:22:57;3.20;81.80
21734;DHT22;11029;47.820;10.534;2024-02-23T03:26:02;3.00;80.90
21734;DHT22;11029;47.820;10.534;2024-02-23T03:28:48;2.80;82.10
21734;DHT22;11029;47.820;10.534;2024-02-23T03:31:34;2.80;82.20
21734;DHT22;11029;47.820;10.534;2024-02-23T03:34:19;2.70;82.10
21734;DHT22;11029;47.820;10.534;2024-02-23T03:37:05;2.70;83.10
21734;DHT22;11029;47.820;10.534;2024-02-23T03:39:50;2.70;83.60
21734;DHT22;11029;47.820;10.534;2024-02-23T03:42:36;2.60;82.60
21734;DHT22;11029;47.820;10.534;2024-02-23T03:45:21;2.50;83.50
21734;DHT22;11029;47.820;10.534;2024-02-23T03:48:07;2.50;83.40
21734;DHT22;11029;47.820;10.534;2024-02-23T03:50:52;2.40;83.70
21734;DHT22;11029;47.820;10.534;2024-02-23T03:53:39;2.30;83.30
21734;DHT22;11029;47.820;10.534;2024-02-23T03:56:25;2.40;83.20
21734;DHT22;11029;47.820;10.534;2024-02-23T03:59:10;2.40;83.40
21734;DHT22;11029;47.820;10.534;2024-02-23T04:01:57;2.40;83.00
21734;DHT22;11029;47.820;10.534;2024-02-23T04:04:42;2.40;83.30
21734;DHT22;11029;47.820;10.534;2024-02-23T04:07:28;2.40;82.80
21734;DHT22;11029;47.820;10.534;2024-02-23T04:10:14;2.30;82.30
21734;DHT22;11029;47.820;10.534;2024-02-23T04:13:01;2.30;81.90
21734;DHT22;11029;47.820;10.534;2024-02-23T04:15:47;2.20;81.70
21734;DHT22;11029;47.820;10.534;2024-02-23T04:18:32;2.20;82.70
21734;DHT22;11029;47.820;10.534;2024-02-23T04:21:18;2.20;83.10
21734;DHT22;11029;47.820;10.534;2024-02-23T04:24:04;2.20;83.40
21734;DHT22;11029;47.820;10.534;2024-02-23T04:26:50;2.20;83.00
21734;DHT22;11029;47.820;10.534;2024-02-23T04:29:35;2.20;83.40
21734;DHT22;11029;47.820;10.534;2024-02-23T04:32:21;2.20;83.40
21734;DHT22;11029;47.820;10.534;2024-02-23T04:35:12;2.20;83.40
21734;DHT22;11029;47.820;10.534;2024-02-23T04:37:57;2.30;82.50
21734;DHT22;11029;47.820;10.534;2024-02-23T04:40:43;2.20;82.90
21734;DHT22;11029;47.820;10.534;2024-02-23T04:43:28;2.30;82.70
21734;DHT22;11029;47.820;10.534;2024-02-23T04:46:14;2.30;82.70
21734;DHT22;11029;47.820;10.534;2024-02-23T04:49:01;2.40;82.70
21734;DHT22;11029;47.820;10.534;2024-02-23T04:51:47;2.30;83.00
21734;DHT22;11029;47.820;10.534;2024-02-23T04:54:33;2.30;83.30
21734;DHT22;11029;47.820;10.534;2024-02-23T04:57:18;2.20;83.40
21734;DHT22;11029;47.820;10.534;2024-02-23T05:00:04;2.30;84.00
21734;DHT22;11029;47.820;10.534;2024-02-23T05:02:52;2.30;84.30
21734;DHT22;11029;47.820;10.534;2024-02-23T05:05:39;2.20;84.50
21734;DHT22;11029;47.820;10.534;2024-02-23T05:08:25;2.20;85.00
21734;DHT22;11029;47.820;10.534;2024-02-23T05:11:14;2.10;84.60
21734;DHT22;11029;47.820;10.534;2024-02-23T05:14:01;2.00;84.40
21734;DHT22;11029;47.820;10.534;2024-02-23T05:16:46;2.00;84.70
21734;DHT22;11029;47.820;10.534;2024-02-23T05:19:32;2.00;84.80
21734;DHT22;11029;47.820;10.534;2024-02-23T05:22:18;2.00;84.90
21734;DHT22;11029;47.820;10.534;2024-02-23T05:25:05;2.00;84.70
21734;DHT22;11029;47.820;10.534;2024-02-23T05:27:51;2.10;84.90
21734;DHT22;11029;47.820;10.534;2024-02-23T05:30:37;2.10;84.40
21734;DHT22;11029;47.820;10.534;2024-02-23T05:33:23;2.10;84.40
21734;DHT22;11029;47.820;10.534;2024-02-23T05:36:09;2.00;84.70
21734;DHT22;11029;47.820;10.534;2024-02-23T05:38:55;2.10;84.50
21734;DHT22;11029;47.820;10.534;2024-02-23T05:41:41;2.10;84.30
21734;DHT22;11029;47.820;10.534;2024-02-23T05:44:27;2.10;84.60
21734;DHT22;11029;47.820;10.534;2024-02-23T05:47:14;2.20;84.10
21734;DHT22;11029;47.820;10.534;2024-02-23T05:50:00;2.20;84.40
21734;DHT22;11029;47.820;10.534;2024-02-23T05:52:47;2.20;84.10
21734;DHT22;11029;47.820;10.534;2024-02-23T05:55:32;2.20;84.10
21734;DHT22;11029;47.820;10.534;2024-02-23T05:58:18;2.20;84.00
21734;DHT22;11029;47.820;10.534;2024-02-23T06:01:03;2.20;84.00
21734;DHT22;11029;47.820;10.534;2024-02-23T06:03:50;2.20;83.90
21734;DHT22;11029;47.820;10.534;2024-02-23T06:06:35;2.20;84.00
21734;DHT22;11029;47.820;10.534;2024-02-23T06:09:21;2.10;84.20
21734;DHT22;11029;47.820;10.534;2024-02-23T06:12:08;2.10;84.60
21734;DHT22;11029;47.820;10.534;2024-02-23T06:14:54;2.10;84.60
21734;DHT22;11029;47.820;10.534;2024-02-23T06:17:41;2.20;84.60
21734;DHT22;11029;47.820;10.534;2024-02-23T06:20:27;2.20;84.20
21734;DHT22;11029;47.820;10.534;2024-02-23T06:23:13;2.20;83.90
21734;DHT22;11029;47.820;10.534;2024-02-23T06:25:58;2.20;83.90
21734;DHT22;11029;47.820;10.534;2024-02-23T06:28:44;2.20;84.30
21734;DHT22;11029;47.820;10.534;2024-02-23T06:31:30;2.30;84.70
21734;DHT22;11029;47.820;10.534;2024-02-23T06:34:16;2.20;84.10
21734;DHT22;11029;47.820;10.534;2024-02-23T06:37:02;2.30;83.90
21734;DHT22;11029;47.820;10.534;2024-02-23T06:39:48;2.30;84.20
21734;DHT22;11029;47.820;10.534;2024-02-23T06:42:39;2.30;84.00
21734;DHT22;11029;47.820;10.534;2024-02-23T06:45:25;2.20;84.60
21734;DHT22;11029;47.820;10.534;2024-02-23T06:48:11;2.30;85.20
21734;DHT22;11029;47.820;10.534;2024-02-23T06:50:57;2.40;84.20
21734;DHT22;11029;47.820;10.534;2024-02-23T06:53:42;2.40;84.30
21734;DHT22;11029;47.820;10.534;2024-02-23T06:56:28;2.30;84.50
21734;DHT22;11029;47.820;10.534;2024-02-23T06:59:14;2.30;84.00
21734;DHT22;11029;47.820;10.534;2024-02-23T07:02:00;2.40;84.50
21734;DHT22;11029;47.820;10.534;2024-02-23T07:04:45;2.30;84.60
21734;DHT22;11029;47.820;10.534;2024-02-23T07:07:32;2.30;84.20
21734;DHT22;11029;47.820;10.534;2024-02-23T07:10:18;2.40;84.00
21734;DHT22;11029;47.820;10.534;2024-02-23T07:13:05;2.40;84.30
21734;DHT22;11029;47.820;10.534;2024-02-23T07:15:52;2.40;84.20
21734;DHT22;11029;47.820;10.534;2024-02-23T07:18:38;2.30;84.20
21734;DHT22;11029;47.820;10.534;2024-02-23T07:21:25;2.40;84.80
21734;DHT22;11029;47.820;10.534;2024-02-23T07:24:12;2.50;84.70
21734;DHT22;11029;47.820;10.534;2024-02-23T07:26:58;2.60;83.60
21734;DHT22;11029;47.820;10.534;2024-02-23T07:29:44;2.60;83.50
21734;DHT22;11029;47.820;10.534;2024-02-23T07:32:30;2.50;84.20
21734;DHT22;11029;47.820;10.534;2024-02-23T07:35:17;2.50;84.90
21734;DHT22;11029;47.820;10.534;2024-02-23T07:38:02;2.60;85.30
21734;DHT22;11029;47.820;10.534;2024-02-23T07:40:48;2.70;84.00
21734;DHT22;11029;47.820;10.534;2024-02-23T07:43:33;2.70;84.60
21734;DHT22;11029;47.820;10.534;2024-02-23T07:46:19;2.80;84.50
21734;DHT22;11029;47.820;10.534;2024-02-23T07:49:05;2.90;84.10
21734;DHT22;11029;47.820;10.534;2024-02-23T07:51:52;3.00;82.90
21734;DHT22;11029;47.820;10.534;2024-02-23T07:54:37;2.80;83.90
21734;DHT22;11029;47.820;10.534;2024-02-23T07:57:24;3.00;84.20
21734;DHT22;11029;47.820;10.534;2024-02-23T08:00:10;3.00;82.80
21734;DHT22;11029;47.820;10.534;2024-02-23T08:02:59;3.00;84.40
21734;DHT22;11029;47.820;10.534;2024-02-23T08:05:45;3.10;84.30
21734;DHT22;11029;47.820;10.534;2024-02-23T08:08:31;3.30;84.10
21734;DHT22;11029;47.820;10.534;2024-02-23T08:11:20;3.40;84.10
21734;DHT22;11029;47.820;10.534;2024-02-23T08:14:06;3.40;81.80
21734;DHT22;11029;47.820;10.534;2024-02-23T08:16:51;3.20;82.40
21734;DHT22;11029;47.820;10.534;2024-02-23T08:19:38;3.30;82.80
21734;DHT22;11029;47.820;10.534;2024-02-23T08:22:23;3.30;81.80
21734;DHT22;11029;47.820;10.534;2024-02-23T08:25:10;3.30;81.60
21734;DHT22;11029;47.820;10.534;2024-02-23T08:27:59;3.20;81.40
21734;DHT22;11029;47.820;10.534;2024-02-23T08:30:45;3.00;81.40
21734;DHT22;11029;47.820;10.534;2024-02-23T08:33:31;2.80;82.30
21734;DHT22;11029;47.820;10.534;2024-02-23T08:36:17;2.90;83.50
21734;DHT22;11029;47.820;10.534;2024-02-23T08:39:02;3.00;83.00
21734;DHT22;11029;47.820;10.534;2024-02-23T08:41:48;3.10;82.80
21734;DHT22;11029;47.820;10.534;2024-02-23T08:44:36;3.10;81.90
21734;DHT22;11029;47.820;10.534;2024-02-23T08:47:24;3.00;80.60
21734;DHT22;11029;47.820;10.534;2024-02-23T08:50:13;2.60;81.00
21734;DHT22;11029;47.820;10.534;2024-02-23T08:53:00;2.60;82.10
21734;DHT22;11029;47.820;10.534;2024-02-23T08:55:45;2.50;82.50
21734;DHT22;11029;47.820;10.534;2024-02-23T08:58:31;2.50;82.50
21734;DHT22;11029;47.820;10.534;2024-02-23T09:01:17;2.40;83.00
21734;DHT22;11029;47.820;10.534;2024-02-23T09:04:02;2.40;83.50
21734;DHT22;11029;47.820;10.534;2024-02-23T09:06:48;2.40;84.40
21734;DHT22;11029;47.820;10.534;2024-02-23T09:09:35;2.40;83.90
21734;DHT22;11029;47.820;10.534;2024-02-23T09:12:21;2.40;84.30
21734;DHT22;11029;47.820;10.534;2024-02-23T09:15:07;2.50;85.10
21734;DHT22;11029;47.820;10.534;2024-02-23T09:17:52;2.70;84.20
21734;DHT22;11029;47.820;10.534;2024-02-23T09:20:38;2.90;84.70
21734;DHT22;11029;47.820;10.534;2024-02-23T09:23:24;3.10;84.50
21734;DHT22;11029;47.820;10.534;2024-02-23T09:26:10;3.20;80.80
21734;DHT22;11029;47.820;10.534;2024-02-23T09:28:58;3.20;80.70
21734;DHT22;11029;47.820;10.534;2024-02-23T09:31:44;3.20;80.50
21734;DHT22;11029;47.820;10.534;2024-02-23T09:34:29;3.00;79.40
21734;DHT22;11029;47.820;10.534;2024-02-23T09:37:15;2.90;80.70
21734;DHT22;11029;47.820;10.534;2024-02-23T09:40:01;2.90;80.60
21734;DHT22;11029;47.820;10.534;2024-02-23T09:42:56;3.00;81.00
21734;DHT22;11029;47.820;10.534;2024-02-23T09:45:42;3.10;81.50
21734;DHT22;11029;47.820;10.534;2024-02-23T09:48:29;3.30;80.40
21734;DHT22;11029;47.820;10.534;2024-02-23T09:51:19;3.40;81.10
21734;DHT22;11029;47.820;10.534;2024-02-23T09:54:06;3.40;80.40
21734;DHT22;11029;47.820;10.534;2024-02-23T09:56:53;3.50;79.70
21734;DHT22;11029;47.820;10.534;2024-02-23T09:59:39;3.40;79.90
21734;DHT22;11029;47.820;10.534;2024-02-23T10:02:25;3.60;80.50
21734;DHT22;11029;47.820;10.534;2024-02-23T10:05:11;3.80;80.00
21734;DHT22;11029;47.820;10.534;2024-02-23T10:07:58;4.00;79.60
21734;DHT22;11029;47.820;10.534;2024-02-23T10:10:46;4.10;79.40
21734;DHT22;11029;47.820;10.534;2024-02-23T10:13:32;4.20;79.60
21734;DHT22;11029;47.820;10.534;2024-02-23T10:16:19;4.30;78.60
21734;DHT22;11029;47.820;10.534;2024-02-23T10:19:08;4.20;76.70
21734;DHT22;11029;47.820;10.534;2024-02-23T10:21:54;4.20;77.70
21734;DHT22;11029;47.820;10.534;2024-02-23T10:24:42;4.20;77.80
21734;DHT22;11029;47.820;10.534;2024-02-23T10:27:28;4.20;77.80
21734;DHT22;11029;47.820;10.534;2024-02-23T10:30:13;4.20;78.10
21734;DHT22;11029;47.820;10.534;2024-02-23T10:33:03;4.20;78.00
21734;DHT22;11029;47.820;10.534;2024-02-23T10:35:56;4.30;77.90
21734;DHT22;11029;47.820;10.534;2024-02-23T10:38:46;4.30;77.90
21734;DHT22;11029;47.820;10.534;2024-02-23T10:41:34;4.30;78.30
21734;DHT22;11029;47.820;10.534;2024-02-23T10:44:22;4.30;78.10
21734;DHT22;11029;47.820;10.534;2024-02-23T10:47:08;4.40;77.50
21734;DHT22;11029;47.820;10.534;2024-02-23T10:49:55;4.40;77.40
21734;DHT22;11029;47.820;10.534;2024-02-23T10:52:42;4.40;77.60
21734;DHT22;11029;47.820;10.534;2024-02-23T10:55:29;4.50;77.10
21734;DHT22;11029;47.820;10.534;2024-02-23T10:58:14;4.50;76.70
21734;DHT22;11029;47.820;10.534;2024-02-23T11:01:03;4.50;76.80
21734;DHT22;11029;47.820;10.534;2024-02-23T11:03:51;4.50;76.20
21734;DHT22;11029;47.820;10.534;2024-02-23T11:06:38;4.30;75.00
21734;DHT22;11029;47.820;10.534;2024-02-23T11:09:25;4.30;75.40
21734;DHT22;11029;47.820;10.534;2024-02-23T11:12:10;4.40;76.40
21734;DHT22;11029;47.820;10.534;2024-02-23T11:14:57;4.50;75.90
21734;DHT22;11029;47.820;10.534;2024-02-23T11:17:49;4.50;76.30
21734;DHT22;11029;47.820;10.534;2024-02-23T11:20:37;4.60;76.40
21734;DHT22;11029;47.820;10.534;2024-02-23T11:23:23;4.60;75.30
21734;DHT22;11029;47.820;10.534;2024-02-23T11:26:12;4.30;74.30
21734;DHT22;11029;47.820;10.534;2024-02-23T11:28:59;4.30;74.40
21734;DHT22;11029;47.820;10.534;2024-02-23T11:31:46;4.20;72.60
21734;DHT22;11029;47.820;10.534;2024-02-23T11:34:34;4.20;73.60
21734;DHT22;11029;47.820;10.534;2024-02-23T11:37:20;4.00;71.10
21734;DHT22;11029;47.820;10.534;2024-02-23T11:40:07;3.70;73.90
21734;DHT22;11029;47.820;10.534;2024-02-23T11:42:54;3.90;73.10
21734;DHT22;11029;47.820;10.534;2024-02-23T11:45:41;4.00;74.40
21734;DHT22;11029;47.820;10.534;2024-02-23T11:48:26;4.20;74.30
21734;DHT22;11029;47.820;10.534;2024-02-23T11:51:14;4.20;71.50
21734;DHT22;11029;47.820;10.534;2024-02-23T11:54:00;3.90;69.30
21734;DHT22;11029;47.820;10.534;2024-02-23T11:56:46;3.90;71.70
21734;DHT22;11029;47.820;10.534;2024-02-23T11:59:32;4.10;72.10
21734;DHT22;11029;47.820;10.534;2024-02-23T12:02:18;4.00;70.90
21734;DHT22;11029;47.820;10.534;2024-02-23T12:05:04;4.00;71.30
21734;DHT22;11029;47.820;10.534;2024-02-23T12:07:50;4.10;71.50
21734;DHT22;11029;47.820;10.534;2024-02-23T12:10:36;3.90;69.60
21734;DHT22;11029;47.820;10.534;2024-02-23T12:13:23;3.80;70.60
21734;DHT22;11029;47.820;10.534;2024-02-23T12:16:08;3.70;71.00
21734;DHT22;11029;47.820;10.534;2024-02-23T12:18:57;3.60;70.50
21734;DHT22;11029;47.820;10.534;2024-02-23T12:21:45;3.60;70.70
21734;DHT22;11029;47.820;10.534;2024-02-23T12:24:31;3.60;71.20
21734;DHT22;11029;47.820;10.534;2024-02-23T12:27:17;3.70;69.60
21734;DHT22;11029;47.820;10.534;2024-02-23T12:30:04;3.60;70.60
21734;DHT22;11029;47.820;10.534;2024-02-23T12:32:50;3.60;72.10
21734;DHT22;11029;47.820;10.534;2024-02-23T12:35:36;3.90;70.60
21734;DHT22;11029;47.820;10.534;2024-02-23T12:38:22;3.90;70.90
21734;DHT22;11029;47.820;10.534;2024-02-23T12:41:09;3.90;70.30
21734;DHT22;11029;47.820;10.534;2024-02-23T12:43:54;3.90;67.50
21734;DHT22;11029;47.820;10.534;2024-02-23T12:46:40;3.90;68.90
21734;DHT22;11029;47.820;10.534;2024-02-23T12:49:26;4.10;69.10
21734;DHT22;11029;47.820;10.534;2024-02-23T12:52:12;4.20;68.30
21734;DHT22;11029;47.820;10.534;2024-02-23T12:54:58;4.20;66.40
21734;DHT22;11029;47.820;10.534;2024-02-23T12:57:43;4.20;66.60
21734;DHT22;11029;47.820;10.534;2024-02-23T13:00:29;4.00;64.70
21734;DHT22;11029;47.820;10.534;2024-02-23T13:03:14;3.90;64.50
21734;DHT22;11029;47.820;10.534;2024-02-23T13:06:00;3.60;66.40
21734;DHT22;11029;47.820;10.534;2024-02-23T13:08:45;3.70;65.60
21734;DHT22;11029;47.820;10.534;2024-02-23T13:11:32;3.70;65.80
21734;DHT22;11029;47.820;10.534;2024-02-23T13:14:18;3.80;66.80
21734;DHT22;11029;47.820;10.534;2024-02-23T13:17:04;3.90;66.20
21734;DHT22;11029;47.820;10.534;2024-02-23T13:19:49;4.00;67.00
21734;DHT22;11029;47.820;10.534;2024-02-23T13:22:52;4.00;65.80
21734;DHT22;11029;47.820;10.534;2024-02-23T13:25:39;4.20;66.60
21734;DHT22;11029;47.820;10.534;2024-02-23T13:28:25;4.30;66.10
21734;DHT22;11029;47.820;10.534;2024-02-23T13:31:10;4.30;66.10
21734;DHT22;11029;47.820;10.534;2024-02-23T13:33:55;4.30;66.00
21734;DHT22;11029;47.820;10.534;2024-02-23T13:36:41;4.30;66.10
21734;DHT22;11029;47.820;10.534;2024-02-23T13:39:27;4.30;66.00
21734;DHT22;11029;47.820;10.534;2024-02-23T13:42:13;4.30;65.20
21734;DHT22;11029;47.820;10.534;2024-02-23T13:44:58;4.30;65.90
21734;DHT22;11029;47.820;10.534;2024-02-23T13:48:02;4.20;65.50
21734;DHT22;11029;47.820;10.534;2024-02-23T13:50:49;4.10;64.60
21734;DHT22;11029;47.820;10.534;2024-02-23T13:53:34;3.90;65.30
21734;DHT22;11029;47.820;10.534;2024-02-23T13:56:23;3.90;65.10
21734;DHT22;11029;47.820;10.534;2024-02-23T13:59:12;3.90;65.70
21734;DHT22;11029;47.820;10.534;2024-02-23T14:01:58;3.90;66.00
21734;DHT22;11029;47.820;10.534;2024-02-23T14:04:43;3.80;66.90
21734;DHT22;11029;47.820;10.534;2024-02-23T14:07:30;3.80;67.30
21734;DHT22;11029;47.820;10.534;2024-02-23T14:10:16;3.90;68.20
21734;DHT22;11029;47.820;10.534;2024-02-23T14:13:02;4.00;67.40
21734;DHT22;11029;47.820;10.534;2024-02-23T14:15:47;4.10;67.80
21734;DHT22;11029;47.820;10.534;2024-02-23T14:18:33;4.10;66.20
21734;DHT22;11029;47.820;10.534;2024-02-23T14:21:22;4.20;66.90
21734;DHT22;11029;47.820;10.534;2024-02-23T14:24:10;4.20;66.60
21734;DHT22;11029;47.820;10.534;2024-02-23T14:26:55;4.20;65.80
21734;DHT22;11029;47.820;10.534;2024-02-23T14:29:41;4.10;66.30
21734;DHT22;11029;47.820;10.534;2024-02-23T14:32:27;3.90;65.30
21734;DHT22;11029;47.820;10.534;2024-02-23T14:35:12;3.90;66.70
21734;DHT22;11029;47.820;10.534;2024-02-23T14:37:58;3.80;65.30
21734;DHT22;11029;47.820;10.534;2024-02-23T14:40:44;3.70;66.30
21734;DHT22;11029;47.820;10.534;2024-02-23T14:43:29;3.70;66.00
21734;DHT22;11029;47.820;10.534;2024-02-23T14:46:16;3.70;66.50
21734;DHT22;11029;47.820;10.534;2024-02-23T14:49:01;3.80;65.30
21734;DHT22;11029;47.820;10.534;2024-02-23T14:51:47;3.90;65.80
21734;DHT22;11029;47.820;10.534;2024-02-23T14:54:33;4.00;66.00
21734;DHT22;11029;47.820;10.534;2024-02-23T14:57:19;4.00;65.30
21734;DHT22;11029;47.820;10.534;2024-02-23T15:00:05;3.80;64.80
21734;DHT22;11029;47.820;10.534;2024-02-23T15:02:51;3.70;64.70
21734;DHT22;11029;47.820;10.534;2024-02-23T15:05:37;3.40;66.50
21734;DHT22;11029;47.820;10.534;2024-02-23T15:08:23;3.50;66.90
21734;DHT22;11029;47.820;10.534;2024-02-23T15:11:08;3.50;67.10
21734;DHT22;11029;47.820;10.534;2024-02-23T15:13:54;3.60;66.20
21734;DHT22;11029;47.820;10.534;2024-02-23T15:16:43;3.70;66.50
21734;DHT22;11029;47.820;10.534;2024-02-23T15:19:29;3.70;66.30
21734;DHT22;11029;47.820;10.534;2024-02-23T15:22:15;3.70;66.80
21734;DHT22;11029;47.820;10.534;2024-02-23T15:25:02;3.80;67.90
21734;DHT22;11029;47.820;10.534;2024-02-23T15:27:51;3.90;68.80
21734;DHT22;11029;47.820;10.534;2024-02-23T15:30:38;3.90;68.10
21734;DHT22;11029;47.820;10.534;2024-02-23T15:33:24;4.00;68.00
21734;DHT22;11029;47.820;10.534;2024-02-23T15:36:10;3.90;68.70
21734;DHT22;11029;47.820;10.534;2024-02-23T15:38:55;3.90;68.50
21734;DHT22;11029;47.820;10.534;2024-02-23T15:41:48;3.70;67.80
21734;DHT22;11029;47.820;10.534;2024-02-23T15:44:35;3.80;68.80
21734;DHT22;11029;47.820;10.534;2024-02-23T15:47:22;3.80;68.10
21734;DHT22;11029;47.820;10.534;2024-02-23T15:50:08;3.80;68.60
21734;DHT22;11029;47.820;10.534;2024-02-23T15:53:14;3.70;68.60
21734;DHT22;11029;47.820;10.534;2024-02-23T15:56:00;3.70;68.60
21734;DHT22;11029;47.820;10.534;2024-02-23T15:58:45;3.60;67.50
21734;DHT22;11029;47.820;10.534;2024-02-23T16:01:31;3.60;67.30
21734;DHT22;11029;47.820;10.534;2024-02-23T16:04:17;3.50;67.60
21734;DHT22;11029;47.820;10.534;2024-02-23T16:07:03;3.40;66.40
21734;DHT22;11029;47.820;10.534;2024-02-23T16:09:51;3.40;67.70
21734;DHT22;11029;47.820;10.534;2024-02-23T16:12:37;3.40;67.00
21734;DHT22;11029;47.820;10.534;2024-02-23T16:15:23;3.40;67.50
21734;DHT22;11029;47.820;10.534;2024-02-23T16:18:08;3.40;68.10
21734;DHT22;11029;47.820;10.534;2024-02-23T16:20:54;3.40;67.30
21734;DHT22;11029;47.820;10.534;2024-02-23T16:23:40;3.30;67.10
21734;DHT22;11029;47.820;10.534;2024-02-23T16:26:26;3.30;66.80
21734;DHT22;11029;47.820;10.534;2024-02-23T16:29:11;3.30;67.40
21734;DHT22;11029;47.820;10.534;2024-02-23T16:31:57;3.10;66.70
21734;DHT22;11029;47.820;10.534;2024-02-23T16:34:43;3.10;67.60
21734;DHT22;11029;47.820;10.534;2024-02-23T16:37:29;3.00;68.10
21734;DHT22;11029;47.820;10.534;2024-02-23T16:40:19;3.10;68.30
21734;DHT22;11029;47.820;10.534;2024-02-23T16:43:14;3.10;68.10
21734;DHT22;11029;47.820;10.534;2024-02-23T16:45:59;3.00;67.50
21734;DHT22;11029;47.820;10.534;2024-02-23T16:48:45;2.90;67.90
21734;DHT22;11029;47.820;10.534;2024-02-23T16:51:30;2.90;67.20
21734;DHT22;11029;47.820;10.534;2024-02-23T16:54:16;2.80;66.80
21734;DHT22;11029;47.820;10.534;2024-02-23T16:57:02;2.60;67.70
21734;DHT22;11029;47.820;10.534;2024-02-23T16:59:47;2.60;68.50
21734;DHT22;11029;47.820;10.534;2024-02-23T17:02:33;2.60;69.30
21734;DHT22;11029;47.820;10.534;2024-02-23T17:05:18;2.70;69.60
21734;DHT22;11029;47.820;10.534;2024-02-23T17:08:04;2.70;69.80
21734;DHT22;11029;47.820;10.534;2024-02-23T17:10:50;2.70;69.30
21734;DHT22;11029;47.820;10.534;2024-02-23T17:13:36;2.80;70.20
21734;DHT22;11029;47.820;10.534;2024-02-23T17:16:22;2.80;69.80
21734;DHT22;11029;47.820;10.534;2024-02-23T17:19:12;2.80;70.10
21734;DHT22;11029;47.820;10.534;2024-02-23T17:21:58;2.70;69.60
21734;DHT22;11029;47.820;10.534;2024-02-23T17:24:44;2.60;68.30
21734;DHT22;11029;47.820;10.534;2024-02-23T17:27:29;2.50;69.20
21734;DHT22;11029;47.820;10.534;2024-02-23T17:30:15;2.50;70.10